createdAt,value
2022-11-04T00:01:28.919Z,1.93
2022-11-04T00:03:56.561Z,1.20
2022-11-04T00:06:25.779Z,1.30
2022-11-04T00:08:53.668Z,2.30
2022-11-04T00:11:39.188Z,1.30
2022-11-04T00:14:07.383Z,1.10
2022-11-04T00:16:52.516Z,1.30
2022-11-04T00:19:20.372Z,1.20
2022-11-04T00:22:08.144Z,1.30
2022-11-04T00:24:53.608Z,1.20
2022-11-04T00:27:39.716Z,1.47
2022-11-04T00:30:09.503Z,1.40
2022-11-04T00:32:54.768Z,1.20
2022-11-04T00:35:22.589Z,1.27
2022-11-04T00:37:51.797Z,1.10
2022-11-04T00:40:19.742Z,1.20
2022-11-04T00:42:47.536Z,2.60
2022-11-04T00:45:15.277Z,1.20
2022-11-04T00:47:42.976Z,1.33
2022-11-04T00:50:10.986Z,1.40
2022-11-04T00:52:38.656Z,1.80
2022-11-04T00:55:08.979Z,1.93
2022-11-04T00:57:36.640Z,1.60
2022-11-04T01:00:05.137Z,1.60
2022-11-04T01:02:32.877Z,1.83
2022-11-04T01:05:00.692Z,1.80
2022-11-04T01:07:28.324Z,1.70
2022-11-04T01:09:56.196Z,2.00
2022-11-04T01:12:25.380Z,1.93
2022-11-04T01:14:53.032Z,2.00
2022-11-04T01:17:20.802Z,2.20
2022-11-04T01:19:48.417Z,2.10
2022-11-04T01:22:16.185Z,2.40
2022-11-04T01:24:43.797Z,1.93
2022-11-04T01:27:11.486Z,2.83
2022-11-04T01:29:40.557Z,2.50
2022-11-04T01:32:08.514Z,2.57
2022-11-04T01:34:42.243Z,2.43
2022-11-04T01:37:11.414Z,3.87
2022-11-04T01:39:39.053Z,3.40
2022-11-04T01:42:06.791Z,3.43
2022-11-04T01:45:02.972Z,3.70
2022-11-04T01:47:33.579Z,3.30
2022-11-04T01:50:09.388Z,3.80
2022-11-04T01:52:38.578Z,3.83
2022-11-04T01:55:09.330Z,3.40
2022-11-04T01:57:43.387Z,3.77
2022-11-04T02:00:40.781Z,3.20
2022-11-04T02:03:10.065Z,4.60
2022-11-04T02:05:38.058Z,3.93
2022-11-04T02:08:33.319Z,3.83
2022-11-04T02:11:01.712Z,3.37
2022-11-04T02:13:28.575Z,3.53
2022-11-04T02:16:00.207Z,3.27
2022-11-04T02:18:37.786Z,3.77
2022-11-04T02:21:41.784Z,2.87
2022-11-04T02:24:41.319Z,3.43
2022-11-04T02:27:17.793Z,4.10
2022-11-04T02:29:52.099Z,6.30
2022-11-04T02:32:21.073Z,2.80
2022-11-04T02:34:54.091Z,3.80
2022-11-04T02:37:26.545Z,3.07
2022-11-04T02:39:56.319Z,3.20
2022-11-04T02:42:27.635Z,3.53
2022-11-04T02:45:01.182Z,2.80
2022-11-04T02:47:29.863Z,2.23
2022-11-04T02:49:59.438Z,2.70
2022-11-04T02:52:28.630Z,2.70
2022-11-04T02:54:59.516Z,5.27
2022-11-04T02:57:28.484Z,7.00
2022-11-04T02:59:58.169Z,4.03
2022-11-04T03:02:28.307Z,2.43
2022-11-04T03:04:55.989Z,2.23
2022-11-04T03:07:25.132Z,3.77
2022-11-04T03:09:54.596Z,3.23
2022-11-04T03:12:24.401Z,3.13
2022-11-04T03:14:53.422Z,3.33
2022-11-04T03:17:23.829Z,4.57
2022-11-04T03:19:54.454Z,4.73
2022-11-04T03:22:23.109Z,2.87
2022-11-04T03:24:51.370Z,3.07
2022-11-04T03:27:23.318Z,9.17
2022-11-04T03:29:54.653Z,1.83
2022-11-04T03:32:25.362Z,4.80
2022-11-04T03:34:54.409Z,4.37
2022-11-04T03:37:22.067Z,2.93
2022-11-04T03:39:49.764Z,5.40
2022-11-04T03:42:23.178Z,3.47
2022-11-04T03:44:51.680Z,6.00
2022-11-04T03:47:20.732Z,3.67
2022-11-04T03:49:50.114Z,6.83
2022-11-04T03:52:17.755Z,2.60
2022-11-04T03:54:45.457Z,5.70
2022-11-04T03:57:23.213Z,6.83
2022-11-04T04:00:11.457Z,6.70
2022-11-04T04:02:44.105Z,6.43
2022-11-04T04:05:17.779Z,3.30
2022-11-04T04:07:49.604Z,7.37
2022-11-04T04:10:35.856Z,3.77
2022-11-04T04:13:37.666Z,5.07
2022-11-04T04:16:08.256Z,3.20
2022-11-04T04:18:37.747Z,6.57
2022-11-04T04:21:09.146Z,5.63
2022-11-04T04:23:54.070Z,4.40
2022-11-04T04:26:39.574Z,5.23
2022-11-04T04:29:07.220Z,5.10
2022-11-04T04:31:50.410Z,5.83
2022-11-04T04:34:18.745Z,6.03
2022-11-04T04:36:50.199Z,5.60
2022-11-04T04:39:38.023Z,7.00
2022-11-04T04:42:23.738Z,4.53
2022-11-04T04:45:06.684Z,6.33
2022-11-04T04:47:44.797Z,5.37
2022-11-04T04:50:14.015Z,8.10
2022-11-04T04:52:45.633Z,8.30
2022-11-04T04:55:13.562Z,11.87
2022-11-04T04:57:41.429Z,2.10
2022-11-04T05:00:10.780Z,5.57
2022-11-04T05:02:38.718Z,2.90
2022-11-04T05:05:07.413Z,3.23
2022-11-04T05:07:35.091Z,3.23
2022-11-04T05:10:04.331Z,5.57
2022-11-04T05:12:52.186Z,4.90
2022-11-04T05:15:19.938Z,3.90
2022-11-04T05:17:47.639Z,3.80
2022-11-04T05:20:15.510Z,5.70
2022-11-04T05:22:43.189Z,3.27
2022-11-04T05:25:12.379Z,2.00
2022-11-04T05:27:40.124Z,2.87
2022-11-04T05:30:09.808Z,1.83
2022-11-04T05:32:37.491Z,7.17
2022-11-04T05:35:05.761Z,4.43
2022-11-04T05:37:33.458Z,2.57
2022-11-04T05:40:01.147Z,5.60
2022-11-04T05:42:30.603Z,3.30
2022-11-04T05:44:58.429Z,3.83
2022-11-04T05:47:26.320Z,7.67
2022-11-04T05:49:54.139Z,6.50
2022-11-04T05:52:21.874Z,4.60
2022-11-04T05:54:52.492Z,4.10
2022-11-04T05:57:20.945Z,3.63
2022-11-04T05:59:50.198Z,3.83
2022-11-04T06:02:18.122Z,5.90
2022-11-04T06:04:45.955Z,7.43
2022-11-04T06:07:13.799Z,3.80
2022-11-04T06:09:41.682Z,3.90
2022-11-04T06:12:09.914Z,5.10
2022-11-04T06:14:37.797Z,5.43
2022-11-04T06:17:06.880Z,5.57
2022-11-04T06:19:34.727Z,3.03
2022-11-04T06:22:03.891Z,2.07
2022-11-04T06:24:31.689Z,4.93
2022-11-04T06:27:00.740Z,3.90
2022-11-04T06:29:30.333Z,4.43
2022-11-04T06:31:58.300Z,4.10
2022-11-04T06:34:27.827Z,4.17
2022-11-04T06:36:55.508Z,6.97
2022-11-04T06:39:23.237Z,2.70
2022-11-04T06:41:51.818Z,5.60
2022-11-04T06:44:20.354Z,5.90
2022-11-04T06:46:47.996Z,6.47
2022-11-04T06:49:17.570Z,3.17
2022-11-04T06:51:46.677Z,6.80
2022-11-04T06:54:14.895Z,5.30
2022-11-04T06:56:42.547Z,6.83
2022-11-04T06:59:10.843Z,5.37
2022-11-04T07:01:38.752Z,5.77
2022-11-04T07:04:15.544Z,4.07
2022-11-04T07:06:44.316Z,5.87
2022-11-04T07:09:14.554Z,4.47
2022-11-04T07:11:42.398Z,3.97
2022-11-04T07:14:10.186Z,2.67
2022-11-04T07:16:38.020Z,7.63
2022-11-04T07:19:05.942Z,4.93
2022-11-04T07:21:35.141Z,4.30
2022-11-04T07:24:03.060Z,4.93
2022-11-04T07:26:32.077Z,4.20
2022-11-04T07:29:01.103Z,4.40
2022-11-04T07:31:28.900Z,3.67
2022-11-04T07:33:57.736Z,11.23
2022-11-04T07:36:25.444Z,6.10
2022-11-04T07:38:53.818Z,7.27
2022-11-04T07:41:21.526Z,1.83
2022-11-04T07:43:51.506Z,3.40
2022-11-04T07:46:19.325Z,4.67
2022-11-04T07:48:47.195Z,3.97
2022-11-04T07:51:16.570Z,3.73
2022-11-04T07:53:44.400Z,5.60
2022-11-04T07:56:12.608Z,8.10
2022-11-04T07:58:40.492Z,4.40
2022-11-04T08:01:10.762Z,3.20
2022-11-04T08:03:38.650Z,3.20
2022-11-04T08:06:07.597Z,5.17
2022-11-04T08:08:35.481Z,5.03
2022-11-04T08:11:04.303Z,4.33
2022-11-04T08:13:32.592Z,5.63
2022-11-04T08:16:02.650Z,2.43
2022-11-04T08:18:31.891Z,2.90
2022-11-04T08:20:59.683Z,3.83
2022-11-04T08:23:27.471Z,4.30
2022-11-04T08:25:55.180Z,2.73
2022-11-04T08:28:24.184Z,3.40
2022-11-04T08:30:55.590Z,3.07
2022-11-04T08:33:23.420Z,4.13
2022-11-04T08:35:52.433Z,3.93
2022-11-04T08:38:21.215Z,3.23
2022-11-04T08:40:48.959Z,3.27
2022-11-04T08:43:16.734Z,1.77
2022-11-04T08:45:45.823Z,7.07
2022-11-04T08:48:13.555Z,1.60
2022-11-04T08:50:41.283Z,3.50
2022-11-04T08:53:10.923Z,2.47
2022-11-04T08:55:39.234Z,3.93
2022-11-04T08:58:07.205Z,4.87
2022-11-04T09:00:36.444Z,2.43
2022-11-04T09:03:04.589Z,9.27
2022-11-04T09:05:32.382Z,3.20
2022-11-04T09:08:01.104Z,3.83
2022-11-04T09:10:30.147Z,8.10
2022-11-04T09:12:57.853Z,4.73
2022-11-04T09:15:25.547Z,2.37
2022-11-04T09:17:53.213Z,3.27
2022-11-04T09:20:20.923Z,1.97
2022-11-04T09:22:50.394Z,3.33
2022-11-04T09:25:18.171Z,1.93
2022-11-04T09:27:47.219Z,4.43
2022-11-04T09:30:15.222Z,3.10
2022-11-04T09:32:43.073Z,3.83
2022-11-04T09:35:12.979Z,4.60
2022-11-04T09:37:40.812Z,5.20
2022-11-04T09:40:11.236Z,6.70
2022-11-04T09:42:45.026Z,5.50
2022-11-04T09:45:21.554Z,2.70
2022-11-04T09:47:51.528Z,3.47
2022-11-04T09:50:21.848Z,2.23
2022-11-04T09:52:51.674Z,3.63
2022-11-04T09:55:21.964Z,4.63
2022-11-04T09:57:52.451Z,2.93
2022-11-04T10:00:23.174Z,3.13
2022-11-04T10:02:56.008Z,6.43
2022-11-04T10:05:35.036Z,2.40
2022-11-04T10:08:24.833Z,5.93
2022-11-04T10:10:55.337Z,2.57
2022-11-04T10:13:27.257Z,3.30
2022-11-04T10:16:12.042Z,3.40
2022-11-04T10:19:03.445Z,5.17
2022-11-04T10:21:37.177Z,2.17
2022-11-04T10:24:10.778Z,7.93
2022-11-04T10:26:42.817Z,3.23
2022-11-04T10:29:17.613Z,5.60
2022-11-04T10:31:46.763Z,4.30
2022-11-04T10:34:21.362Z,2.97
2022-11-04T10:36:49.207Z,3.15
2022-11-04T10:39:19.380Z,1.77
2022-11-04T10:41:47.586Z,4.13
2022-11-04T10:44:17.750Z,3.38
2022-11-04T10:46:51.103Z,3.22
2022-11-04T10:49:39.715Z,4.88
2022-11-04T10:52:07.513Z,3.22
2022-11-04T10:54:37.369Z,3.08
2022-11-04T10:57:05.356Z,2.65
2022-11-04T10:59:38.660Z,2.55
2022-11-04T11:02:08.117Z,5.50
2022-11-04T11:04:36.763Z,2.23
2022-11-04T11:07:08.529Z,3.20
2022-11-04T11:09:36.654Z,4.53
2022-11-04T11:12:29.550Z,3.47
2022-11-04T11:14:54.433Z,2.00
2022-11-04T11:17:25.036Z,3.60
2022-11-04T11:19:56.694Z,2.60
2022-11-04T11:22:39.837Z,2.97
2022-11-04T11:25:22.733Z,2.20
2022-11-04T11:27:51.069Z,3.90
2022-11-04T11:30:23.289Z,5.73
2022-11-04T11:32:55.809Z,5.53
2022-11-04T11:35:24.774Z,3.60
2022-11-04T11:37:52.465Z,7.37
2022-11-04T11:40:27.644Z,2.67
2022-11-04T11:42:55.725Z,3.33
2022-11-04T11:45:24.409Z,3.70
2022-11-04T11:47:54.974Z,2.07
2022-11-04T11:50:32.548Z,3.53
2022-11-04T11:53:15.773Z,5.23
2022-11-04T11:55:45.475Z,3.47
2022-11-04T12:01:12.031Z,4.57
2022-11-04T12:09:34.689Z,5.63
2022-11-04T12:12:10.060Z,6.30
2022-11-04T12:14:49.379Z,3.33
2022-11-04T12:17:24.660Z,3.83
2022-11-04T12:20:03.872Z,8.73
2022-11-04T12:22:36.800Z,5.37
2022-11-04T12:25:09.882Z,2.60
2022-11-04T12:27:39.830Z,3.47
2022-11-04T12:30:10.344Z,4.37
2022-11-04T12:32:44.446Z,4.97
2022-11-04T12:35:35.415Z,4.13
2022-11-04T12:38:13.082Z,3.90
2022-11-04T12:40:43.451Z,3.47
2022-11-04T12:43:19.527Z,3.00
2022-11-04T12:45:55.267Z,4.40
2022-11-04T12:48:32.293Z,4.00
2022-11-04T12:51:02.833Z,3.57
2022-11-04T12:53:45.216Z,4.23
2022-11-04T12:56:13.291Z,3.20
2022-11-04T12:58:48.843Z,3.50
2022-11-04T13:01:18.355Z,6.87
2022-11-04T13:03:50.352Z,5.13
2022-11-04T13:06:18.958Z,4.97
2022-11-04T13:08:50.875Z,3.73
2022-11-04T13:11:26.782Z,6.73
2022-11-04T13:14:05.199Z,4.30
2022-11-04T13:16:34.811Z,5.17
2022-11-04T13:19:03.052Z,4.70
2022-11-04T13:21:33.245Z,5.53
2022-11-04T13:24:05.045Z,7.00
2022-11-04T13:26:32.765Z,6.60
2022-11-04T13:29:07.521Z,6.23
2022-11-04T13:31:42.560Z,5.83
2022-11-04T13:34:13.672Z,3.83
2022-11-04T13:36:43.026Z,3.27
2022-11-04T13:39:17.703Z,7.07
2022-11-04T13:42:04.661Z,5.13
2022-11-04T13:44:35.583Z,5.00
2022-11-04T13:47:05.200Z,4.50
2022-11-04T13:49:34.296Z,4.77
2022-11-04T13:52:03.136Z,4.37
2022-11-04T13:54:32.973Z,6.13
2022-11-04T13:57:08.259Z,6.57
2022-11-04T13:59:36.168Z,5.63
2022-11-04T14:02:26.784Z,5.23
2022-11-04T14:04:55.685Z,7.20
2022-11-04T14:07:55.113Z,5.73
2022-11-04T14:10:46.727Z,5.60
2022-11-04T14:13:56.938Z,5.43
2022-11-04T14:16:42.580Z,8.70
2022-11-04T14:19:55.767Z,4.00
2022-11-04T14:22:30.509Z,4.57
2022-11-04T14:24:58.591Z,4.83
2022-11-04T14:27:31.604Z,8.10
2022-11-04T14:29:59.416Z,8.90
2022-11-04T14:32:28.447Z,4.40
2022-11-04T14:35:00.269Z,5.63
2022-11-04T14:37:29.762Z,6.40
2022-11-04T14:39:59.002Z,4.27
2022-11-04T14:42:46.697Z,5.10
2022-11-04T14:45:18.116Z,5.83
2022-11-04T14:47:49.071Z,8.67
2022-11-04T14:50:19.245Z,5.20
2022-11-04T14:52:48.360Z,3.80
2022-11-04T14:55:16.944Z,8.97
2022-11-04T14:57:46.523Z,4.33
2022-11-04T15:00:31.710Z,6.53
2022-11-04T15:03:57.524Z,11.00
2022-11-04T15:06:05.884Z,5.73
2022-11-04T15:08:37.638Z,4.77
2022-11-04T15:11:13.909Z,6.83
2022-11-04T15:13:49.890Z,6.80
2022-11-04T15:16:19.337Z,6.90
2022-11-04T15:18:47.268Z,5.60
2022-11-04T15:21:14.948Z,4.23
2022-11-04T15:23:45.018Z,5.43
2022-11-04T15:26:23.872Z,4.27
2022-11-04T15:28:57.403Z,8.70
2022-11-04T15:31:25.905Z,4.60
2022-11-04T15:33:55.058Z,6.20
2022-11-04T15:36:23.790Z,8.60
2022-11-04T15:38:54.457Z,5.53
2022-11-04T15:41:40.736Z,7.60
2022-11-04T15:44:18.309Z,9.77
2022-11-04T15:46:52.881Z,7.87
2022-11-04T15:49:26.079Z,9.20
2022-11-04T15:51:55.606Z,9.00
2022-11-04T15:54:26.823Z,6.97
2022-11-04T15:56:56.195Z,6.73
2022-11-04T15:59:27.216Z,9.13
2022-11-04T16:01:55.293Z,4.73
2022-11-04T16:04:24.869Z,6.83
2022-11-04T16:07:22.205Z,7.87
2022-11-04T16:09:51.020Z,6.10
2022-11-04T16:12:26.895Z,7.60
2022-11-04T16:14:56.348Z,6.87
2022-11-04T16:17:24.282Z,7.53
2022-11-04T16:19:53.511Z,8.10
2022-11-04T16:22:25.020Z,9.00
2022-11-04T16:24:52.991Z,9.37
2022-11-04T16:27:22.066Z,8.60
2022-11-04T16:30:02.620Z,8.63
2022-11-04T16:32:31.864Z,8.73
2022-11-04T16:35:01.871Z,8.40
2022-11-04T16:37:30.233Z,7.53
2022-11-04T16:39:58.155Z,7.23
2022-11-04T16:42:25.870Z,9.33
2022-11-04T16:45:04.111Z,7.87
2022-11-04T16:47:32.177Z,7.67
2022-11-04T16:50:13.500Z,9.57
2022-11-04T16:52:44.163Z,11.03
2022-11-04T16:55:15.939Z,10.23
2022-11-04T16:57:45.021Z,8.07
2022-11-04T17:00:22.680Z,7.63
2022-11-04T17:02:51.260Z,10.90
2022-11-04T17:05:19.142Z,10.17
2022-11-04T17:07:53.697Z,8.10
2022-11-04T17:10:25.403Z,8.63
2022-11-04T17:12:53.151Z,10.43
2022-11-04T17:15:22.498Z,8.40
2022-11-04T17:17:50.663Z,9.93
2022-11-04T17:20:18.650Z,12.67
2022-11-04T17:22:46.924Z,11.27
2022-11-04T17:25:17.247Z,10.30
2022-11-04T17:27:45.038Z,9.47
2022-11-04T17:30:19.132Z,11.83
2022-11-04T17:32:48.164Z,9.77
2022-11-04T17:35:16.520Z,14.83
2022-11-04T17:37:44.337Z,10.83
2022-11-04T17:40:13.814Z,11.83
2022-11-04T17:42:59.374Z,17.13
2022-11-04T17:45:28.267Z,10.37
2022-11-04T17:47:57.482Z,11.47
2022-11-04T17:50:25.332Z,14.93
2022-11-04T17:52:53.085Z,10.53
2022-11-04T17:55:27.155Z,13.60
2022-11-04T17:57:55.512Z,10.43
2022-11-04T18:06:20.423Z,12.50
2022-11-04T18:08:48.444Z,13.77
2022-11-04T18:11:36.825Z,13.27
2022-11-04T18:14:03.885Z,14.60
2022-11-04T18:16:32.338Z,14.87
2022-11-04T18:19:02.350Z,16.83
2022-11-04T18:21:32.635Z,13.70
2022-11-04T18:24:00.706Z,16.50
2022-11-04T18:26:28.931Z,12.17
2022-11-04T18:28:57.147Z,12.73
2022-11-04T18:31:27.008Z,13.20
2022-11-04T18:33:54.897Z,15.67
2022-11-04T18:36:22.804Z,14.33
2022-11-04T18:38:52.476Z,16.60
2022-11-04T18:41:20.615Z,13.93
2022-11-04T18:43:48.711Z,14.67
2022-11-04T18:46:17.390Z,16.47
2022-11-04T18:48:49.124Z,14.97
2022-11-04T18:51:17.419Z,18.10
2022-11-04T18:53:45.436Z,14.63
2022-11-04T18:56:15.544Z,16.43
2022-11-04T18:58:45.079Z,13.17
2022-11-04T19:01:17.295Z,17.90
2022-11-04T19:03:45.418Z,16.70
2022-11-04T19:06:14.683Z,16.43
2022-11-04T19:08:46.622Z,16.90
2022-11-04T19:11:18.124Z,17.23
2022-11-04T19:13:56.014Z,21.33
2022-11-04T19:16:24.241Z,19.40
2022-11-04T19:18:55.299Z,16.47
2022-11-04T19:21:24.310Z,27.00
2022-11-04T19:23:52.214Z,16.90
2022-11-04T19:26:22.711Z,21.93
2022-11-04T19:28:51.267Z,17.83
2022-11-04T19:31:20.682Z,19.17
2022-11-04T19:33:48.691Z,14.67
2022-11-04T19:36:17.773Z,18.10
2022-11-04T19:38:45.984Z,21.73
2022-11-04T19:41:34.536Z,18.17
2022-11-04T19:44:03.838Z,22.60
2022-11-04T19:46:31.876Z,21.97
2022-11-04T19:48:59.919Z,25.13
2022-11-04T19:51:32.007Z,21.87
2022-11-04T19:54:00.492Z,19.80
2022-11-04T19:56:30.689Z,17.93
2022-11-04T19:59:06.183Z,21.50
2022-11-04T20:01:36.840Z,23.07
2022-11-04T20:04:05.308Z,17.47
2022-11-04T20:06:34.104Z,22.17
2022-11-04T20:09:05.734Z,19.40
2022-11-04T20:11:34.445Z,23.40
2022-11-04T20:14:07.561Z,24.87
2022-11-04T20:16:39.542Z,25.57
2022-11-04T20:19:07.434Z,21.83
2022-11-04T20:21:36.151Z,21.13
2022-11-04T20:24:05.100Z,24.60
2022-11-04T20:26:33.208Z,33.23
2022-11-04T20:29:01.139Z,27.97
2022-11-04T20:31:29.900Z,22.67
2022-11-04T20:33:58.986Z,25.43
2022-11-04T20:36:27.638Z,22.93
2022-11-04T20:38:59.088Z,20.70
2022-11-04T20:41:27.099Z,28.77
2022-11-04T20:43:55.821Z,35.67
2022-11-04T20:46:24.502Z,31.87
2022-11-04T20:48:52.358Z,27.30
2022-11-04T20:51:22.719Z,27.93
2022-11-04T20:53:55.777Z,27.47
2022-11-04T20:56:24.462Z,24.00
2022-11-04T20:58:57.693Z,24.73
2022-11-04T21:01:27.982Z,31.30
2022-11-04T21:03:55.921Z,29.43
2022-11-04T21:06:40.216Z,30.03
2022-11-04T21:09:08.845Z,23.37
2022-11-04T21:11:38.930Z,26.63
2022-11-04T21:14:06.934Z,32.37
2022-11-04T21:16:35.544Z,29.50
2022-11-04T21:19:03.359Z,25.17
2022-11-04T21:21:32.465Z,29.90
2022-11-04T21:24:02.779Z,30.67
2022-11-04T21:26:31.326Z,29.63
2022-11-04T21:29:01.327Z,26.00
2022-11-04T21:31:29.272Z,28.30
2022-11-04T21:33:57.008Z,21.57
2022-11-04T21:36:24.649Z,22.10
2022-11-04T21:38:52.926Z,26.17
2022-11-04T21:41:24.331Z,23.00
2022-11-04T21:43:54.748Z,24.60
2022-11-04T21:46:22.560Z,25.97
2022-11-04T21:48:50.212Z,25.57
2022-11-04T21:51:18.870Z,24.53
2022-11-04T21:53:46.559Z,23.63
2022-11-04T21:56:15.114Z,26.50
2022-11-04T21:58:44.308Z,23.27
2022-11-04T22:01:12.936Z,27.37
2022-11-04T22:03:40.725Z,33.30
2022-11-04T22:06:09.597Z,25.90
2022-11-04T22:08:37.529Z,23.03
2022-11-04T22:11:09.054Z,26.07
2022-11-04T22:13:36.731Z,29.33
2022-11-04T22:16:12.685Z,23.63
2022-11-04T22:18:40.317Z,24.43
2022-11-04T22:21:10.677Z,26.00
2022-11-04T22:23:38.626Z,24.67
2022-11-04T22:26:07.238Z,31.40
2022-11-04T22:28:35.244Z,25.97
2022-11-04T22:31:07.540Z,30.03
2022-11-04T22:33:37.663Z,29.30
2022-11-04T22:36:06.009Z,32.00
2022-11-04T22:38:33.813Z,29.23
2022-11-04T22:41:01.837Z,26.57
2022-11-04T22:43:29.527Z,28.60
2022-11-04T22:45:57.620Z,31.40
2022-11-04T22:48:25.364Z,32.93
2022-11-04T22:50:57.196Z,32.93
2022-11-04T22:53:24.948Z,29.27
2022-11-04T22:55:52.702Z,27.37
2022-11-04T22:58:20.424Z,23.77
2022-11-04T23:00:48.167Z,21.70
2022-11-04T23:03:16.674Z,26.57
2022-11-04T23:05:44.669Z,23.73
2022-11-04T23:08:13.698Z,23.90
2022-11-04T23:10:58.799Z,27.40
2022-11-04T23:13:44.107Z,22.43
2022-11-04T23:16:29.941Z,19.67
2022-11-04T23:18:57.680Z,19.77
2022-11-04T23:21:42.886Z,20.40
2022-11-04T23:24:29.341Z,22.23
2022-11-04T23:26:57.331Z,18.90
2022-11-04T23:29:42.267Z,21.20
2022-11-04T23:32:09.932Z,17.10
2022-11-04T23:34:55.228Z,19.73
2022-11-04T23:37:22.857Z,20.03
2022-11-04T23:39:51.975Z,18.20
2022-11-04T23:47:46.581Z,17.03
2022-11-04T23:50:32.059Z,16.87
2022-11-04T23:53:18.081Z,16.17
2022-11-04T23:56:03.790Z,16.37
2022-11-04T23:58:49.157Z,19.17
